ICAO code: LHPR | IATA code: QGY | AFTN: LHPRZPZX | magyar | english
Wetter: 2018-11-17 10:30 (UTC) | Temperatur: 5.1 °C | QNH: 1031.9 hPa | Wind: 3.1 m/s | Mehr dazu
Live ATC LHPR
Webcam life

Győr-Pér Airport Meteor data

Metar:
METAR LHPR 171015Z 05007KT 010V110 CAVOK 05/M02 Q1032 RMK BL


Taf:
TAF LHPR 162000Z NIL


Actual Wetter:
Cloud development not observed or observable
Date stamp: 2018-11-17 10:30:00 UTC
Air Temp:
5.1 °C
 
Dewpoint:
-2.3 °C
 
Rel. Humidity:
59%
 
QNH:
1031.9 hPa
 
Wind speed:
3.1 m/s
Max:
4.8 m/s
Wind direction:
70°
 
Precipitation (1 hour):
0.0 mm
 
Visibility:
20000 m
 
RVR:
>1500 m RWY30
 
1st cloud layer quantity:
6 octa
 
1st cloud layer base:
2650 m


Az adatokat szolgáltatja
az Országos Meteorológiai Szolgálat
Flughafen Győr-Pér | H 9099 Pér, Repülőtér | Tel: +36/96/559-200 | Fax: +36/96/559-202

ICAO code: LHPR | IATA code: QGY | AFTN: LHPRZPZX


weboldal tervezés: IRQ